الصفحة الرئيسية
METAR-TAF:

METAR-TAF

مطار :

Tarawa, كيريباس

دائرة عرض: 01-21N, خط طول: 172-55E, ارتفاع: 2 متر

مراقبة الطقس الحالي

تاريخ ووقت الإصدار 52 دقيقة قبل الساعة 03:00UTC
ريح 7 عقدة من الشرق/الشمال الشرقي
درجة الحرارة 31°درجة مئوية
الرطوبة 79%
ضغط 1006 hPa
الرؤية 10 كم أو أكثر
غيوم قليلة على ارتفاع 1800 قدم, مزن ركامية عمودية.
غيوم مفككة على ارتفاع 30000 قدم

METAR: NGTA 250300Z 06007KT 9999 FEW018TCU BKN300 31/27 Q1006

زمن: 17:52 (03:52 UTC)

توقعات

تاريخ ووقت الإصدار 4ساعات و 33 دقيقة قبل الساعة 23:19UTC
التوقعات صالحة من25 الساعة 00 UTC إلى 25 الساعة 24 UTC
ريح 12 عقدة من الشرق/الشمال الشرقي
الرؤية 10 كم أو أكثر
غيوم متفرقة على ارتفاع 1800 قدم
غيوم مفككة على ارتفاع 4000 قدم
نظرية الاحتمالات 40% :
مؤقت
من 25 الساعة 04 UTC إلى 25 الساعة 18 UTC
الرؤية: 5000 متر
غيوم قليلة على ارتفاع 1800 قدم, مزنة ركامية.
عاصفة رعدية, مطر,

TAF: NGTA 242319Z 2500/2524 06012KT 9999 SCT018 BKN040 PROB40 TEMPO 2504/2518 5000 TSRA FEW018CB

أرصاد الطقس والتوقعات من أكثر من 4000 مطار (تقارير الطقس للمطار METAR والتنبؤ بالطقس بالمطارTAF).

المحطات المتاحة هي النقط الصفراء والحمراء على الخريطة.

حرك المؤشر فوق النقطة لمعرفة اسم المحطة.

ثم انقر لمعرفة أرصاد وتوقعات الطقس.

لتغيير الخارطة: اضغط على الأزرار الخضراء مع رمز الصليب الأسود للتكبير. على الزر الأخضر مع شرطة للتصغير، أو على الأسهم الخضراء للخرائط المجاورة.


METAR-TAF: